Colac Airport


Codes: YOLA/XCO
Name: Colac Airport
City:
Country: Australia
Elevation: 137 ft.

Photos at Colac Airport


   Photos courtesy of SpottingLog. You can add your own sightings and photos by signing up for a free trial today.



No photos found.

Weather at Colac Airport


Time (UTC)DescriptionTempratureWindCloud coverageVisibilityPressureHumidity
19-Apr-2024 03:00Scattered Clouds16°C11 mph, SE45%10000m1023hPa50%
19-Apr-2024 06:00Scattered Clouds16°C11 mph, SE47%10000m1023hPa52%
19-Apr-2024 09:00Few Clouds12°C7 mph, S16%10000m1026hPa72%
19-Apr-2024 12:00Clear Sky9°C4 mph, S0%10000m1029hPa91%
19-Apr-2024 15:00Clear Sky9°C7 mph, S9%10000m1029hPa93%
19-Apr-2024 18:00Scattered Clouds8°C7 mph, S30%10000m1029hPa93%
19-Apr-2024 21:00Clear Sky8°C4 mph, S10%10000m1030hPa94%
20-Apr-2024 00:00Clear Sky14°C4 mph, S7%10000m1030hPa64%
20-Apr-2024 03:00Few Clouds19°C2 mph, NW11%10000m1028hPa42%
20-Apr-2024 06:00Clear Sky19°C2 mph, SE6%10000m1028hPa43%
20-Apr-2024 09:00Clear Sky10°C2 mph, SE0%10000m1030hPa86%
20-Apr-2024 12:00Clear Sky8°C2 mph, SW1%10000m1031hPa93%
20-Apr-2024 15:00Scattered Clouds7°C2 mph, SW45%10000m1030hPa95%
20-Apr-2024 18:00Broken Clouds6°C2 mph, SW58%10000m1030hPa96%
20-Apr-2024 21:00Broken Clouds6°C2 mph, SW72%10000m1031hPa96%
21-Apr-2024 00:00Broken Clouds13°C4 mph, SW76%10000m1030hPa72%
21-Apr-2024 03:00Overcast Clouds18°C2 mph, W100%10000m1028hPa45%
21-Apr-2024 06:00Broken Clouds19°C2 mph, N79%10000m1027hPa41%
21-Apr-2024 09:00Few Clouds11°C4 mph, SE17%10000m1029hPa85%
21-Apr-2024 12:00Few Clouds9°C2 mph, E12%10000m1029hPa93%
21-Apr-2024 15:00Clear Sky8°C2 mph, SE0%10000m1028hPa95%
21-Apr-2024 18:00Clear Sky8°C2 mph, E1%10000m1026hPa96%
21-Apr-2024 21:00Clear Sky7°C2 mph, NE6%10000m1026hPa96%
22-Apr-2024 00:00Clear Sky14°C4 mph, NW8%10000m1025hPa59%
22-Apr-2024 03:00Clear Sky20°C9 mph, NW2%10000m1023hPa31%
22-Apr-2024 06:00Clear Sky21°C7 mph, NW1%10000m1021hPa29%
22-Apr-2024 09:00Clear Sky14°C4 mph, NW0%10000m1021hPa46%
22-Apr-2024 12:00Clear Sky11°C4 mph, N0%10000m1021hPa50%
22-Apr-2024 15:00Scattered Clouds10°C2 mph, NW27%10000m1019hPa52%
22-Apr-2024 18:00Scattered Clouds10°C2 mph, NW41%10000m1018hPa50%
22-Apr-2024 21:00Overcast Clouds10°C4 mph, N94%10000m1018hPa49%
23-Apr-2024 00:00Overcast Clouds18°C9 mph, N97%10000m1016hPa35%
23-Apr-2024 03:00Overcast Clouds21°C18 mph, N100%10000m1012hPa33%
23-Apr-2024 06:00Overcast Clouds22°C13 mph, NW100%10000m1009hPa33%
23-Apr-2024 09:00Overcast Clouds15°C20 mph, NW100%10000m1011hPa75%
23-Apr-2024 12:00Moderate Rain11°C18 mph, W100%10000m1013hPa84%
23-Apr-2024 15:00Light Rain9°C13 mph, W74%10000m1014hPa84%
23-Apr-2024 18:00Broken Clouds10°C18 mph, W82%10000m1015hPa62%
23-Apr-2024 21:00Light Rain10°C16 mph, W100%10000m1016hPa73%
24-Apr-2024 00:00Light Rain11°C13 mph, W100%10000m1019hPa69%